Lilypad — WDD9770 — position and weather

sailwx.info

Track history (hours):
 
Tides and Currents Weather Stations Pressure Air Temp Water Temp Dewpoint Dewpoint Depression Visibility Wind Speed Wind Dir Waves Ship Positions

Lilypad

Owner: weippert, don w, Yakima, WA. More information available from US FCC via Universal Licensing System and Coast Guard Vessel Documentation Center.

Last reported at 2016-Jun-28 04:33 UTC. Time now 2016-Jul-01 11:50 UTC.
Position N 35°52' W 121°28'.

Length 18 m; draft 2 m.

Type: Pleasure craft. MMSI: 367316110.

Date/timePositionNaut miles runAvg speedWind from/ knotsBaromVisibWave heightAir tempDewpointWater temp
2016-Jun-28 04:33N 35°52' W 121°28'8 7.6
2016-Jun-28 03:33N 35°58' W 121°33'7 6.8
2016-Jun-28 02:33N 36°03' W 121°40'2 1.8
2016-Jun-28 01:33N 36°02' W 121°42'4 3.9
2016-Jun-28 00:33N 35°59' W 121°39'4 4.5
2016-Jun-27 23:33N 35°56' W 121°35'17 4.4
2016-Jun-27 19:33N 35°42' W 121°22'5 5.0
2016-Jun-27 18:33N 35°38' W 121°18'6 5.7
2016-Jun-27 17:33N 35°34' W 121°14'7 7.1
2016-Jun-27 16:33N 35°29' W 121°08'7 7.2
2016-Jun-27 15:33N 35°23' W 121°02'8 7.2
2016-Jun-27 14:25N 35°16' W 120°57'6 6.6
2016-Jun-27 13:32N 35°12' W 120°52'6 5.9
2016-Jun-27 12:32N 35°09' W 120°46'1 0.1
2016-Jun-27 01:33N 35°10' W 120°45'6 5.6
2016-Jun-27 00:25N 35°03' W 120°43'5 6.1
2016-Jun-26 23:33N 34°58' W 120°44'5 5.4
2016-Jun-26 22:33N 34°53' W 120°47'5 5.1
2016-Jun-26 21:33N 34°48' W 120°48'5 5.5
2016-Jun-26 20:33N 34°43' W 120°51'4 4.4
2016-Jun-26 19:33N 34°39' W 120°51'5 5.2
2016-Jun-26 18:33N 34°35' W 120°47'12 5.7
2016-Jun-26 16:32N 34°26' W 120°38'6 5.8
2016-Jun-26 15:27N 34°23' W 120°32'24 7.4
2016-Jun-26 12:17N 34°17' W 120°04'5 7.5
2016-Jun-26 11:33N 34°15' W 119°58'7 7.2
2016-Jun-26 10:33N 34°13' W 119°49'8 7.3
2016-Jun-26 09:30N 34°11' W 119°40'8 7.9
2016-Jun-26 08:31N 34°09' W 119°31'16 8.3
2016-Jun-26 06:33N 34°04' W 119°12'7 6.8
2016-Jun-26 05:32N 33°57' W 119°11'9 8.7
2016-Jun-26 04:33N 33°52' W 119°02'9 8.4
2016-Jun-26 03:29N 33°47' W 118°54'23 7.7
2016-Jun-26 00:32N 33°34' W 118°32'8 8.2
2016-Jun-25 23:33N 33°29' W 118°24'8 8.5
2016-Jun-25 22:33N 33°24' W 118°15'19 8.0
2016-Jun-25 20:15N 33°12' W 117°58'6 8.3
2016-Jun-25 19:33N 33°08' W 117°53'8 8.1
2016-Jun-25 18:33N 33°03' W 117°46'8 8.3
2016-Jun-25 17:33N 32°57' W 117°39'8 8.2
2016-Jun-25 16:33N 32°51' W 117°32'8 8.1
2016-Jun-25 15:33N 32°46' W 117°25'9 8.5
2016-Jun-25 14:30N 32°40' W 117°17'4 4.4
2016-Jun-25 13:32N 32°43' W 117°13'7 0.3
2016-Jun-24 14:29N 32°39' W 117°07'6 6.8
2016-Jun-24 13:33N 32°43' W 117°13'6 6.5
2016-Jun-24 12:33N 32°37' W 117°15'8 7.5
2016-Jun-24 11:33N 32°39' W 117°23'8 7.5
2016-Jun-24 10:33N 32°41' W 117°32'7 7.1
2016-Jun-24 09:33N 32°43' W 117°40'6 6.4
2016-Jun-24 08:33N 32°45' W 117°48'7 6.8
2016-Jun-24 07:32N 32°47' W 117°55'21 7.1
2016-Jun-24 04:33N 32°38' W 117°33'8 7.5
2016-Jun-24 03:33N 32°37' W 117°24'8 7.0
2016-Jun-24 02:28N 32°37' W 117°15'6 7.1
2016-Jun-24 01:34N 32°43' W 117°13'0 0.1
2016-Jun-24 00:33N 32°44' W 117°13'0 0.0
2016-Jun-23 23:33N 32°44' W 117°13'6 6.1
2016-Jun-23 22:31N 32°39' W 117°07'1 0.0
2016-Jun-22 21:23N 32°39' W 117°07'6 7.4
2016-Jun-22 20:33N 32°43' W 117°12'7 7.4
2016-Jun-22 19:33N 32°36' W 117°14'7 7.4
2016-Jun-22 18:33N 32°43' W 117°13'  
Track history (hours):
 
Tides and Currents Weather Stations Pressure Air Temp Water Temp Dewpoint Dewpoint Depression Visibility Wind Speed Wind Dir Waves Ship Positions

Lilypad

Owner: weippert, don w, Yakima, WA. More information available from US FCC via Universal Licensing System and Coast Guard Vessel Documentation Center.

Last reported at 2016-Jun-28 04:33 UTC. Time now 2016-Jul-01 11:50 UTC.
Position N 35°52' W 121°28'.

Length 18 m; draft 2 m.

Type: Pleasure craft. MMSI: 367316110.

Date/timePositionNaut miles runAvg speedWind from/ knotsBaromVisibWave heightAir tempDewpointWater temp
2016-Jun-28 04:33N 35°52' W 121°28'8 7.6
2016-Jun-28 03:33N 35°58' W 121°33'7 6.8
2016-Jun-28 02:33N 36°03' W 121°40'2 1.8
2016-Jun-28 01:33N 36°02' W 121°42'4 3.9
2016-Jun-28 00:33N 35°59' W 121°39'4 4.5
2016-Jun-27 23:33N 35°56' W 121°35'17 4.4
2016-Jun-27 19:33N 35°42' W 121°22'5 5.0
2016-Jun-27 18:33N 35°38' W 121°18'6 5.7
2016-Jun-27 17:33N 35°34' W 121°14'7 7.1
2016-Jun-27 16:33N 35°29' W 121°08'7 7.2
2016-Jun-27 15:33N 35°23' W 121°02'8 7.2
2016-Jun-27 14:25N 35°16' W 120°57'6 6.6
2016-Jun-27 13:32N 35°12' W 120°52'6 5.9
2016-Jun-27 12:32N 35°09' W 120°46'1 0.1
2016-Jun-27 01:33N 35°10' W 120°45'6 5.6
2016-Jun-27 00:25N 35°03' W 120°43'5 6.1
2016-Jun-26 23:33N 34°58' W 120°44'5 5.4
2016-Jun-26 22:33N 34°53' W 120°47'5 5.1
2016-Jun-26 21:33N 34°48' W 120°48'5 5.5
2016-Jun-26 20:33N 34°43' W 120°51'4 4.4
2016-Jun-26 19:33N 34°39' W 120°51'5 5.2
2016-Jun-26 18:33N 34°35' W 120°47'12 5.7
2016-Jun-26 16:32N 34°26' W 120°38'6 5.8
2016-Jun-26 15:27N 34°23' W 120°32'24 7.4
2016-Jun-26 12:17N 34°17' W 120°04'5 7.5
2016-Jun-26 11:33N 34°15' W 119°58'7 7.2
2016-Jun-26 10:33N 34°13' W 119°49'8 7.3
2016-Jun-26 09:30N 34°11' W 119°40'8 7.9
2016-Jun-26 08:31N 34°09' W 119°31'16 8.3
2016-Jun-26 06:33N 34°04' W 119°12'7 6.8
2016-Jun-26 05:32N 33°57' W 119°11'9 8.7
2016-Jun-26 04:33N 33°52' W 119°02'9 8.4
2016-Jun-26 03:29N 33°47' W 118°54'23 7.7
2016-Jun-26 00:32N 33°34' W 118°32'8 8.2
2016-Jun-25 23:33N 33°29' W 118°24'8 8.5
2016-Jun-25 22:33N 33°24' W 118°15'19 8.0
2016-Jun-25 20:15N 33°12' W 117°58'6 8.3
2016-Jun-25 19:33N 33°08' W 117°53'8 8.1
2016-Jun-25 18:33N 33°03' W 117°46'8 8.3
2016-Jun-25 17:33N 32°57' W 117°39'8 8.2
2016-Jun-25 16:33N 32°51' W 117°32'8 8.1
2016-Jun-25 15:33N 32°46' W 117°25'9 8.5
2016-Jun-25 14:30N 32°40' W 117°17'4 4.4
2016-Jun-25 13:32N 32°43' W 117°13'7 0.3
2016-Jun-24 14:29N 32°39' W 117°07'6 6.8
2016-Jun-24 13:33N 32°43' W 117°13'6 6.5
2016-Jun-24 12:33N 32°37' W 117°15'8 7.5
2016-Jun-24 11:33N 32°39' W 117°23'8 7.5
2016-Jun-24 10:33N 32°41' W 117°32'7 7.1
2016-Jun-24 09:33N 32°43' W 117°40'6 6.4
2016-Jun-24 08:33N 32°45' W 117°48'7 6.8
2016-Jun-24 07:32N 32°47' W 117°55'21 7.1
2016-Jun-24 04:33N 32°38' W 117°33'8 7.5
2016-Jun-24 03:33N 32°37' W 117°24'8 7.0
2016-Jun-24 02:28N 32°37' W 117°15'6 7.1
2016-Jun-24 01:34N 32°43' W 117°13'0 0.1
2016-Jun-24 00:33N 32°44' W 117°13'0 0.0
2016-Jun-23 23:33N 32°44' W 117°13'6 6.1
2016-Jun-23 22:31N 32°39' W 117°07'1 0.0
2016-Jun-22 21:23N 32°39' W 117°07'6 7.4
2016-Jun-22 20:33N 32°43' W 117°12'7 7.4
2016-Jun-22 19:33N 32°36' W 117°14'7 7.4
2016-Jun-22 18:33N 32°43' W 117°13'  

Dump ship's entire track history